VIE weather

Vienna International Airport
Vienna, Vienna, Austria

Public forecast

Using degrees Celsius for public forecast. Weather courtesy of forecast.io.

METAR (pilot weather report)

Retrieved 2017/03/29 08:50 UTC (21 minutes ago):

LOWW 290850Z 31008KT 270V350 CAVOK 19/05 Q1024 NOSIG

TAF (pilot weather forecast)

Retrieved 2017/03/29 06:20 UTC (3 hours ago):

TAF LOWW 290515Z 2906/3012 29007KT CAVOK TX21/2912Z TN09/3006Z TEMPO 2909/2916 31015G25KT FM300600 32007KT 9999 BKN050